Time;durP1;ratioP1;P1;durP2;ratioP2;P2;SDS_P1;SDS_P2;PMS_P1;PMS_P2;Temp;Humidity;BMP_temperature;BMP_pressure;BME280_temperature;BME280_humidity;BME280_pressure;Samples;Min_cycle;Max_cycle;Signal;HPM_P1;HPM_P2
2023/10/22 00:00:12;;;;;;;6.40;2.80;;;13.10;99.90;;;;;;5045140;28;20110;-74
2023/10/22 00:02:38;;;;;;;8.93;3.42;;;13.10;99.90;;;;;;5049315;28;20032;-74
2023/10/22 00:05:04;;;;;;;7.78;3.40;;;13.10;99.90;;;;;;5046827;28;20124;-74
2023/10/22 00:07:30;;;;;;;12.38;3.05;;;13.00;99.90;;;;;;5041905;28;20164;-74
2023/10/22 00:09:56;;;;;;;10.95;3.00;;;13.10;99.90;;;;;;5049087;28;20036;-74
2023/10/22 00:12:22;;;;;;;6.00;2.75;;;13.10;99.90;;;;;;5048580;28;20047;-74
2023/10/22 00:14:47;;;;;;;10.63;3.28;;;13.10;99.90;;;;;;5046894;28;20389;-75
2023/10/22 00:17:13;;;;;;;9.00;3.28;;;13.10;99.90;;;;;;5052588;28;20424;-74
2023/10/22 00:19:38;;;;;;;9.10;3.25;;;13.10;99.90;;;;;;5052710;28;20078;-74
2023/10/22 00:22:04;;;;;;;8.20;3.10;;;13.20;99.90;;;;;;5052497;28;20028;-75
2023/10/22 00:24:31;;;;;;;9.43;2.80;;;13.10;99.90;;;;;;5052696;28;20083;-74
2023/10/22 00:26:58;;;;;;;9.15;2.90;;;13.20;99.90;;;;;;5052801;28;20520;-75
2023/10/22 00:29:23;;;;;;;6.50;2.80;;;13.20;99.90;;;;;;5052391;28;20021;-74
2023/10/22 00:31:49;;;;;;;8.00;2.80;;;13.20;99.90;;;;;;5052715;28;20508;-74
2023/10/22 00:34:15;;;;;;;10.27;3.45;;;13.20;99.90;;;;;;5051906;28;20023;-74
2023/10/22 00:36:41;;;;;;;10.88;3.13;;;13.20;99.90;;;;;;5052277;28;20481;-75
2023/10/22 00:39:07;;;;;;;8.05;2.55;;;13.20;99.90;;;;;;5048501;28;20021;-74
2023/10/22 00:41:32;;;;;;;7.75;2.40;;;13.30;99.90;;;;;;5052263;28;20074;-74
2023/10/22 00:43:58;;;;;;;8.63;2.83;;;13.30;99.90;;;;;;5051487;28;20032;-74
2023/10/22 00:46:25;;;;;;;6.20;2.60;;;13.30;99.90;;;;;;5042682;28;20323;-74
2023/10/22 00:48:52;;;;;;;5.38;2.33;;;13.30;99.90;;;;;;5052176;28;20071;-74
2023/10/22 00:51:18;;;;;;;4.43;2.35;;;13.30;99.90;;;;;;5047772;28;20340;-75
2023/10/22 00:53:45;;;;;;;4.13;2.50;;;13.30;99.90;;;;;;5046346;28;20100;-74
2023/10/22 00:56:12;;;;;;;8.70;2.70;;;13.30;99.90;;;;;;5049229;28;20116;-75
2023/10/22 00:58:39;;;;;;;8.00;2.40;;;13.30;99.90;;;;;;5051629;28;20033;-74
2023/10/22 01:01:09;;;;;;;10.35;2.33;;;13.40;99.90;;;;;;5052092;28;20043;-75
2023/10/22 01:03:36;;;;;;;6.63;2.05;;;13.40;99.90;;;;;;5051997;28;20033;-74
2023/10/22 01:06:05;;;;;;;8.20;2.38;;;13.40;99.90;;;;;;5052099;28;20134;-74
2023/10/22 01:08:36;;;;;;;7.85;2.42;;;13.40;99.90;;;;;;5052230;28;20096;-74
2023/10/22 01:11:10;;;;;;;8.38;2.30;;;13.40;99.90;;;;;;5052463;28;20017;-74
2023/10/22 01:13:37;;;;;;;6.85;2.50;;;13.50;99.90;;;;;;5045987;28;20025;-74
2023/10/22 01:16:03;;;;;;;8.68;2.42;;;13.40;99.90;;;;;;5052026;28;20021;-74
2023/10/22 01:18:29;;;;;;;11.13;2.30;;;13.40;99.90;;;;;;5052113;28;20486;-75
2023/10/22 01:20:54;;;;;;;6.50;1.83;;;13.50;99.90;;;;;;5051602;28;20036;-75
2023/10/22 01:23:21;;;;;;;8.98;1.92;;;13.50;99.90;;;;;;5052173;28;20033;-75
2023/10/22 01:25:46;;;;;;;6.30;2.03;;;13.50;99.90;;;;;;5051179;28;20405;-75
2023/10/22 01:28:12;;;;;;;8.10;2.25;;;13.50;99.90;;;;;;5051197;28;20009;-75
2023/10/22 01:30:38;;;;;;;6.43;2.10;;;13.60;99.90;;;;;;5051684;28;20029;-76
2023/10/22 01:33:04;;;;;;;6.65;1.85;;;13.60;99.90;;;;;;5046032;28;20018;-76
2023/10/22 01:35:30;;;;;;;8.48;2.03;;;13.60;99.90;;;;;;5047181;28;20024;-73
2023/10/22 01:37:55;;;;;;;6.90;2.00;;;13.60;99.90;;;;;;5051615;28;20556;-76
2023/10/22 01:40:21;;;;;;;7.72;2.20;;;13.60;99.90;;;;;;5042169;28;20029;-76
2023/10/22 01:42:46;;;;;;;7.18;2.13;;;13.70;99.90;;;;;;5048966;28;20017;-75
2023/10/22 01:45:12;;;;;;;12.13;2.65;;;13.70;99.90;;;;;;5051572;28;20390;-75
2023/10/22 01:47:38;;;;;;;10.05;2.33;;;13.70;99.90;;;;;;5046721;28;20536;-76
2023/10/22 01:50:05;;;;;;;10.77;2.38;;;13.80;99.90;;;;;;5048285;28;20028;-76
2023/10/22 01:52:31;;;;;;;11.55;2.53;;;13.80;99.90;;;;;;5049869;28;20136;-76
2023/10/22 01:54:57;;;;;;;12.02;2.20;;;13.90;99.90;;;;;;5035125;28;20013;-76
2023/10/22 01:57:23;;;;;;;5.53;1.55;;;13.80;99.90;;;;;;5041594;28;20522;-76
2023/10/22 01:59:49;;;;;;;6.15;1.67;;;13.80;99.90;;;;;;5050851;28;20075;-76
2023/10/22 02:02:15;;;;;;;4.43;1.40;;;13.70;99.90;;;;;;5051107;28;20075;-76
2023/10/22 02:04:41;;;;;;;5.18;1.45;;;13.60;99.90;;;;;;5046998;28;20033;-76
2023/10/22 02:07:06;;;;;;;3.90;1.30;;;13.50;99.90;;;;;;5049753;28;20029;-76
2023/10/22 02:09:32;;;;;;;8.00;1.90;;;13.40;99.90;;;;;;5050261;28;20029;-76
2023/10/22 02:11:58;;;;;;;11.68;1.98;;;13.30;99.90;;;;;;5049786;28;20489;-76
2023/10/22 02:14:24;;;;;;;8.30;1.85;;;13.30;99.90;;;;;;5048851;28;20025;-76
2023/10/22 02:16:50;;;;;;;9.05;2.17;;;13.20;99.90;;;;;;5047944;28;20052;-76
2023/10/22 02:19:15;;;;;;;11.38;2.50;;;13.20;99.90;;;;;;5041611;28;20018;-76
2023/10/22 02:21:41;;;;;;;15.05;2.70;;;13.20;99.90;;;;;;5046918;28;20016;-73
2023/10/22 02:24:07;;;;;;;10.52;2.70;;;13.20;99.90;;;;;;5050668;28;20081;-76
2023/10/22 02:26:33;;;;;;;15.00;3.50;;;13.20;99.90;;;;;;5037311;28;20038;-76
2023/10/22 02:28:58;;;;;;;11.43;3.78;;;13.20;99.90;;;;;;5050198;28;20016;-76
2023/10/22 02:31:24;;;;;;;11.68;4.68;;;13.20;99.90;;;;;;5048475;28;20036;-75
2023/10/22 02:33:59;;;;;;;11.27;5.00;;;13.20;99.90;;;;;;5050102;28;20389;-76
2023/10/22 02:36:25;;;;;;;18.73;5.75;;;13.10;99.90;;;;;;5046372;28;20052;-77
2023/10/22 02:38:50;;;;;;;14.63;5.88;;;13.10;99.90;;;;;;5047607;28;20083;-77
2023/10/22 02:41:16;;;;;;;14.43;5.32;;;13.10;99.90;;;;;;5045125;28;20389;-77
2023/10/22 02:43:42;;;;;;;12.43;5.00;;;13.10;99.90;;;;;;5037276;28;20104;-77
2023/10/22 02:46:07;;;;;;;7.90;4.53;;;13.00;99.90;;;;;;5049931;28;20017;-77
2023/10/22 02:48:33;;;;;;;9.30;4.15;;;13.00;99.90;;;;;;5042331;28;20018;-76
2023/10/22 02:51:03;;;;;;;11.55;4.07;;;12.90;99.90;;;;;;5045754;28;20013;-76
2023/10/22 02:53:28;;;;;;;10.77;3.53;;;12.80;99.90;;;;;;5037095;28;20051;-76
2023/10/22 02:56:02;;;;;;;7.88;3.55;;;12.70;99.90;;;;;;5044704;28;20111;-76
2023/10/22 02:58:29;;;;;;;11.98;3.63;;;12.70;99.90;;;;;;5049838;28;20061;-76
2023/10/22 03:00:55;;;;;;;12.80;3.53;;;12.60;99.90;;;;;;5047033;28;20032;-76
2023/10/22 03:03:22;;;;;;;7.15;3.33;;;12.60;99.90;;;;;;5048026;28;20478;-76
2023/10/22 03:05:47;;;;;;;9.80;3.05;;;12.50;99.90;;;;;;5041939;28;20024;-76
2023/10/22 03:08:13;;;;;;;8.98;2.75;;;12.50;99.90;;;;;;5037585;28;20034;-76
2023/10/22 03:10:38;;;;;;;9.65;2.50;;;12.40;99.90;;;;;;5048822;28;20021;-77
2023/10/22 03:13:04;;;;;;;8.73;2.50;;;12.40;99.90;;;;;;5049368;28;20056;-77
2023/10/22 03:15:30;;;;;;;10.60;2.60;;;12.40;99.90;;;;;;5042226;28;20021;-76
2023/10/22 03:17:56;;;;;;;9.73;1.90;;;12.30;99.90;;;;;;5044775;28;20086;-76
2023/10/22 03:20:25;;;;;;;8.32;2.00;;;12.30;99.90;;;;;;5039362;28;20059;-76
2023/10/22 03:22:51;;;;;;;5.88;1.80;;;12.30;99.90;;;;;;5039995;28;20462;-76
2023/10/22 03:25:18;;;;;;;6.85;1.80;;;12.30;99.90;;;;;;5044688;28;20036;-76
2023/10/22 03:27:44;;;;;;;8.15;2.00;;;12.30;99.90;;;;;;5045713;28;20393;-76
2023/10/22 03:30:10;;;;;;;7.55;1.80;;;12.30;99.90;;;;;;5049633;28;20017;-77
2023/10/22 03:32:36;;;;;;;10.85;1.80;;;12.30;99.90;;;;;;5049884;28;20373;-76
2023/10/22 03:35:06;;;;;;;12.48;1.92;;;12.30;99.90;;;;;;5049793;28;20025;-76
2023/10/22 03:37:31;;;;;;;8.65;1.55;;;12.30;99.90;;;;;;5050109;28;20374;-76
2023/10/22 03:39:57;;;;;;;9.15;2.28;;;12.30;99.90;;;;;;5049526;28;20047;-76
2023/10/22 03:42:22;;;;;;;6.45;1.50;;;12.30;99.90;;;;;;5049443;28;20032;-76
2023/10/22 03:44:48;;;;;;;9.00;1.85;;;12.30;99.90;;;;;;5033308;28;20026;-76
2023/10/22 03:47:14;;;;;;;12.65;2.10;;;12.30;99.90;;;;;;5042582;28;20492;-77
2023/10/22 03:49:39;;;;;;;12.82;2.15;;;12.30;99.90;;;;;;5047559;28;20021;-76
2023/10/22 03:52:05;;;;;;;7.43;1.90;;;12.30;99.90;;;;;;5048838;28;20086;-76
2023/10/22 03:54:31;;;;;;;8.93;2.00;;;12.30;99.90;;;;;;5053470;28;20025;-76
2023/10/22 03:56:57;;;;;;;6.05;1.70;;;12.30;99.90;;;;;;5052667;28;20028;-76
2023/10/22 03:59:22;;;;;;;8.80;2.10;;;12.30;99.90;;;;;;5052489;28;20078;-76
2023/10/22 04:01:48;;;;;;;11.82;2.30;;;12.30;99.90;;;;;;5052751;28;20483;-76
2023/10/22 04:04:14;;;;;;;5.35;1.73;;;12.30;99.90;;;;;;5052510;28;20025;-76
2023/10/22 04:06:39;;;;;;;7.95;2.20;;;12.30;99.90;;;;;;5052975;28;20373;-76
2023/10/22 04:09:05;;;;;;;10.13;2.45;;;12.30;99.90;;;;;;5052489;28;20504;-76
2023/10/22 04:11:30;;;;;;;8.05;2.47;;;12.30;99.90;;;;;;5053017;28;20021;-75
2023/10/22 04:13:56;;;;;;;12.93;3.22;;;12.30;99.90;;;;;;5052738;28;20031;-76
2023/10/22 04:16:21;;;;;;;11.38;3.15;;;12.30;99.90;;;;;;5050339;28;20025;-76
2023/10/22 04:18:47;;;;;;;10.23;2.95;;;12.30;99.90;;;;;;5046111;28;20385;-76
2023/10/22 04:21:16;;;;;;;11.30;2.85;;;12.30;99.90;;;;;;5067820;28;20470;-76
2023/10/22 04:23:42;;;;;;;8.50;2.30;;;12.30;99.90;;;;;;5052381;28;20087;-75
2023/10/22 04:26:14;;;;;;;7.82;2.50;;;12.30;99.90;;;;;;5052812;28;20031;-76
2023/10/22 04:28:42;;;;;;;7.50;1.58;;;12.30;99.90;;;;;;5052293;28;20049;-75
2023/10/22 04:31:08;;;;;;;10.13;1.92;;;12.30;99.90;;;;;;5041296;28;20025;-76
2023/10/22 04:33:35;;;;;;;6.43;1.70;;;12.30;99.90;;;;;;5049127;28;20037;-76
2023/10/22 04:36:01;;;;;;;6.80;1.30;;;12.30;99.90;;;;;;5052609;28;20424;-76
2023/10/22 04:38:26;;;;;;;9.73;1.40;;;12.40;99.90;;;;;;5040986;28;20017;-76
2023/10/22 04:40:52;;;;;;;4.03;1.05;;;12.40;99.90;;;;;;5051557;28;20024;-76
2023/10/22 04:43:18;;;;;;;7.00;1.30;;;12.40;99.90;;;;;;5047824;28;20042;-76
2023/10/22 04:45:50;;;;;;;4.13;1.35;;;12.40;99.90;;;;;;5052293;28;20064;-75
2023/10/22 04:48:16;;;;;;;8.10;1.42;;;12.50;99.90;;;;;;5052318;28;20482;-75
2023/10/22 04:50:42;;;;;;;5.78;1.10;;;12.50;99.90;;;;;;5052189;28;20044;-76
2023/10/22 04:53:08;;;;;;;5.10;1.30;;;12.40;99.90;;;;;;5051590;28;20057;-76
2023/10/22 04:55:34;;;;;;;6.55;1.00;;;12.40;99.90;;;;;;5051930;28;20028;-75
2023/10/22 04:58:01;;;;;;;8.43;1.50;;;12.40;99.90;;;;;;5041798;28;20071;-75
2023/10/22 05:00:27;;;;;;;7.82;1.00;;;12.40;99.90;;;;;;5051422;28;20021;-75
2023/10/22 05:02:53;;;;;;;4.57;1.10;;;12.40;99.90;;;;;;5043095;28;20070;-75
2023/10/22 05:05:20;;;;;;;7.75;1.25;;;12.40;99.90;;;;;;5049194;28;20025;-75
2023/10/22 05:07:46;;;;;;;7.22;1.10;;;12.30;99.90;;;;;;5051342;28;20017;-75
2023/10/22 05:10:12;;;;;;;6.70;1.38;;;12.30;99.90;;;;;;5052209;28;20032;-75
2023/10/22 05:12:38;;;;;;;6.28;1.20;;;12.30;99.90;;;;;;5051632;28;20029;-75
2023/10/22 05:15:04;;;;;;;5.63;1.35;;;12.30;99.90;;;;;;5042682;28;20071;-75
2023/10/22 05:17:29;;;;;;;9.88;1.40;;;12.30;99.90;;;;;;5051770;28;20027;-75
2023/10/22 05:19:55;;;;;;;8.18;1.30;;;12.30;99.90;;;;;;5051014;28;20392;-75
2023/10/22 05:22:21;;;;;;;2.85;1.10;;;12.30;99.90;;;;;;5049339;28;20039;-76
2023/10/22 05:24:48;;;;;;;6.90;1.30;;;12.30;99.90;;;;;;5050942;28;20064;-75
2023/10/22 05:27:15;;;;;;;9.57;1.52;;;12.30;99.90;;;;;;5045703;28;20061;-75
2023/10/22 05:29:41;;;;;;;8.10;1.60;;;12.30;99.90;;;;;;5047700;28;20021;-75
2023/10/22 05:32:08;;;;;;;7.13;1.58;;;12.20;99.90;;;;;;5051361;28;20021;-75
2023/10/22 05:34:33;;;;;;;7.60;1.90;;;12.20;99.90;;;;;;5048705;28;20033;-75
2023/10/22 05:36:59;;;;;;;6.18;2.00;;;12.20;99.90;;;;;;5049162;28;20286;-75
2023/10/22 05:39:25;;;;;;;5.15;2.10;;;12.20;99.90;;;;;;5051153;28;20021;-75
2023/10/22 05:41:50;;;;;;;7.18;1.90;;;12.20;99.90;;;;;;5044077;28;20033;-75
2023/10/22 05:44:16;;;;;;;4.30;1.60;;;12.20;99.90;;;;;;5049531;28;20045;-75
2023/10/22 05:46:42;;;;;;;7.53;2.10;;;12.20;99.90;;;;;;5049784;28;20101;-75
2023/10/22 05:49:10;;;;;;;6.55;2.00;;;12.10;99.90;;;;;;5048124;28;20020;-75
2023/10/22 05:51:35;;;;;;;9.25;1.80;;;12.10;99.90;;;;;;5043941;28;20033;-76
2023/10/22 05:54:03;;;;;;;5.57;1.70;;;12.10;99.90;;;;;;5050943;28;20366;-75
2023/10/22 05:56:30;;;;;;;7.63;2.00;;;12.10;99.90;;;;;;5044541;28;20024;-75
2023/10/22 05:58:55;;;;;;;8.95;1.95;;;12.10;99.90;;;;;;5048714;28;20024;-75
2023/10/22 06:01:21;;;;;;;9.38;2.10;;;12.20;99.90;;;;;;5050555;28;20029;-75
2023/10/22 06:03:47;;;;;;;6.65;2.40;;;12.10;99.90;;;;;;5050666;28;20036;-75
2023/10/22 06:06:20;;;;;;;12.32;2.80;;;12.10;99.90;;;;;;5049418;28;20569;-75
2023/10/22 06:08:46;;;;;;;9.30;2.67;;;12.10;99.90;;;;;;5049712;28;20386;-75
2023/10/22 06:11:12;;;;;;;7.07;2.60;;;12.10;99.90;;;;;;5045487;28;20041;-75
2023/10/22 06:13:38;;;;;;;6.65;3.00;;;12.10;99.90;;;;;;5050235;28;20029;-75
2023/10/22 06:16:04;;;;;;;11.57;3.30;;;12.10;99.90;;;;;;5050242;28;20569;-75
2023/10/22 06:18:29;;;;;;;10.85;3.75;;;12.10;99.90;;;;;;5050394;28;20024;-75
2023/10/22 06:20:55;;;;;;;11.45;3.50;;;12.00;99.90;;;;;;5045286;28;20037;-75
2023/10/22 06:23:24;;;;;;;9.77;3.50;;;12.00;99.90;;;;;;5050657;28;20115;-75
2023/10/22 06:25:49;;;;;;;7.93;3.63;;;12.00;99.90;;;;;;5047889;28;20456;-75
2023/10/22 06:28:15;;;;;;;8.98;3.75;;;12.00;99.90;;;;;;5041698;28;20024;-74
2023/10/22 06:30:41;;;;;;;13.52;3.50;;;12.00;99.90;;;;;;5049207;28;20402;-74
2023/10/22 06:33:06;;;;;;;11.68;3.03;;;11.90;99.90;;;;;;5049111;28;20413;-74
2023/10/22 06:35:32;;;;;;;9.95;3.35;;;11.90;99.90;;;;;;5048528;28;20429;-74
2023/10/22 06:37:58;;;;;;;8.52;3.40;;;11.90;99.90;;;;;;5046989;28;20108;-74
2023/10/22 06:40:24;;;;;;;10.38;3.30;;;11.90;99.90;;;;;;5046736;28;20060;-74
2023/10/22 06:42:50;;;;;;;9.40;2.92;;;11.90;99.90;;;;;;5049314;28;20036;-74
2023/10/22 06:45:17;;;;;;;8.30;2.60;;;11.90;99.90;;;;;;5044822;28;20056;-75
2023/10/22 06:47:43;;;;;;;9.43;2.65;;;11.80;99.90;;;;;;5047204;28;20440;-74
2023/10/22 06:50:14;;;;;;;8.50;2.35;;;11.80;99.90;;;;;;5048703;28;20017;-74
2023/10/22 06:52:43;;;;;;;7.32;2.78;;;11.80;99.90;;;;;;5042413;28;20041;-72
2023/10/22 06:55:09;;;;;;;7.53;2.50;;;11.80;99.90;;;;;;5049477;28;20074;-74
2023/10/22 06:57:35;;;;;;;8.60;2.53;;;11.70;99.90;;;;;;5050638;28;20016;-74
2023/10/22 07:00:01;;;;;;;10.05;2.88;;;11.80;99.90;;;;;;5046927;28;20018;-74
2023/10/22 07:02:27;;;;;;;7.35;2.58;;;11.80;99.90;;;;;;5048027;28;20021;-74
2023/10/22 07:04:53;;;;;;;9.95;3.17;;;11.70;99.90;;;;;;5047655;28;20037;-74
2023/10/22 07:07:19;;;;;;;11.90;3.88;;;11.70;99.90;;;;;;5043496;28;20568;-74
2023/10/22 07:09:45;;;;;;;13.32;4.03;;;11.80;99.90;;;;;;5045115;28;20021;-73
2023/10/22 07:12:10;;;;;;;11.27;4.38;;;11.70;99.90;;;;;;5048951;28;20021;-74
2023/10/22 07:14:36;;;;;;;10.10;4.35;;;11.70;99.90;;;;;;5049144;28;20029;-74
2023/10/22 07:17:02;;;;;;;13.57;4.05;;;11.70;99.90;;;;;;5040513;28;20025;-74
2023/10/22 07:19:27;;;;;;;10.75;4.22;;;11.70;99.90;;;;;;5041784;28;20021;-75
2023/10/22 07:21:53;;;;;;;13.10;4.38;;;11.70;99.90;;;;;;5048799;28;20488;-75
2023/10/22 07:24:18;;;;;;;8.38;3.92;;;11.70;99.90;;;;;;5049723;28;20068;-74
2023/10/22 07:26:44;;;;;;;10.35;4.18;;;11.70;99.90;;;;;;5051523;28;20402;-74
2023/10/22 07:29:12;;;;;;;9.77;3.72;;;11.70;99.90;;;;;;5053195;28;20047;-75
2023/10/22 07:31:37;;;;;;;13.73;4.38;;;11.70;99.90;;;;;;5043044;28;20074;-73
2023/10/22 07:34:03;;;;;;;9.05;3.88;;;11.80;99.90;;;;;;5046291;28;20100;-73
2023/10/22 07:36:29;;;;;;;8.40;3.83;;;11.80;99.90;;;;;;5048248;28;20033;-74
2023/10/22 07:38:54;;;;;;;10.73;3.55;;;11.80;99.90;;;;;;5052223;28;20022;-74
2023/10/22 07:41:20;;;;;;;11.30;4.13;;;11.80;99.90;;;;;;5048416;28;20029;-74
2023/10/22 07:43:46;;;;;;;13.95;4.20;;;11.90;99.90;;;;;;5043033;28;20100;-74
2023/10/22 07:46:14;;;;;;;10.45;4.18;;;11.90;99.90;;;;;;5052304;28;20033;-76
2023/10/22 07:48:40;;;;;;;9.80;4.57;;;11.90;99.90;;;;;;5053364;28;20025;-74
2023/10/22 07:51:18;;;;;;;14.23;5.20;;;11.90;99.90;;;;;;5052549;28;20376;-74
2023/10/22 07:53:45;;;;;;;11.70;4.47;;;11.90;99.90;;;;;;5046638;28;20037;-74
2023/10/22 07:56:12;;;;;;;13.88;4.40;;;12.00;99.90;;;;;;5052616;28;20032;-74
2023/10/22 07:58:39;;;;;;;10.52;4.50;;;12.00;99.90;;;;;;5052913;28;20040;-74
2023/10/22 08:01:08;;;;;;;10.18;4.50;;;12.00;99.90;;;;;;5050762;28;20048;-74
2023/10/22 08:03:34;;;;;;;9.05;4.43;;;12.10;99.90;;;;;;5053057;28;20124;-74
2023/10/22 08:06:01;;;;;;;10.75;3.70;;;12.10;99.90;;;;;;5054497;28;20497;-74
2023/10/22 08:08:28;;;;;;;8.35;3.67;;;12.20;99.90;;;;;;5051638;28;20052;-74
2023/10/22 08:10:59;;;;;;;8.48;3.78;;;12.20;99.90;;;;;;5050199;28;20036;-74
2023/10/22 08:13:26;;;;;;;10.30;3.50;;;12.20;99.90;;;;;;5052334;28;20108;-74
2023/10/22 08:15:52;;;;;;;7.13;3.70;;;12.30;99.90;;;;;;5052758;28;20470;-74
2023/10/22 08:18:18;;;;;;;9.43;3.22;;;12.30;99.90;;;;;;5052182;28;20032;-74
2023/10/22 08:20:44;;;;;;;9.77;3.70;;;12.30;99.90;;;;;;5052320;28;20017;-74
2023/10/22 08:23:09;;;;;;;9.57;3.63;;;12.40;99.90;;;;;;5049360;28;20021;-74
2023/10/22 08:25:35;;;;;;;10.45;3.80;;;12.40;99.90;;;;;;5052500;28;20037;-74
2023/10/22 08:28:01;;;;;;;8.02;3.35;;;12.50;99.90;;;;;;5052225;28;20021;-74
2023/10/22 08:30:27;;;;;;;10.15;3.55;;;12.50;99.90;;;;;;5052099;28;20017;-74
2023/10/22 08:32:53;;;;;;;9.52;3.63;;;12.50;99.90;;;;;;5052342;28;20017;-74
2023/10/22 08:35:18;;;;;;;8.95;3.50;;;12.60;99.90;;;;;;5048667;28;20128;-74
2023/10/22 08:37:47;;;;;;;8.27;3.40;;;12.60;99.90;;;;;;5046141;28;20393;-74
2023/10/22 08:40:12;;;;;;;10.50;3.33;;;12.60;99.90;;;;;;5052708;28;20025;-74
2023/10/22 08:42:38;;;;;;;7.53;3.25;;;12.60;99.90;;;;;;5039351;28;20092;-75
2023/10/22 08:45:06;;;;;;;10.13;3.38;;;12.60;99.90;;;;;;5052683;28;20020;-74
2023/10/22 08:47:34;;;;;;;9.18;3.65;;;12.60;99.90;;;;;;5051656;28;20067;-74
2023/10/22 08:50:00;;;;;;;6.18;3.60;;;12.60;99.90;;;;;;5052219;28;20489;-74
2023/10/22 08:52:27;;;;;;;8.88;3.60;;;12.60;99.90;;;;;;5051470;28;20460;-74
2023/10/22 08:54:53;;;;;;;7.07;3.28;;;12.70;99.90;;;;;;5047002;28;20519;-74
2023/10/22 08:57:21;;;;;;;10.23;3.25;;;12.70;99.90;;;;;;5050007;28;20541;-74
2023/10/22 08:59:48;;;;;;;9.45;2.97;;;12.70;99.90;;;;;;5050964;28;20424;-74
2023/10/22 09:02:21;;;;;;;6.93;3.00;;;12.70;99.90;;;;;;5049180;28;20461;-74
2023/10/22 09:04:47;;;;;;;8.38;3.17;;;12.70;99.90;;;;;;5051974;28;20029;-74
2023/10/22 09:07:12;;;;;;;8.05;2.63;;;12.70;99.90;;;;;;5052257;28;20036;-75
2023/10/22 09:09:39;;;;;;;8.18;2.78;;;12.70;99.90;;;;;;5051919;28;20021;-74
2023/10/22 09:12:08;;;;;;;10.02;2.80;;;12.80;99.90;;;;;;5046361;28;20067;-74
2023/10/22 09:14:34;;;;;;;6.85;2.90;;;12.80;99.90;;;;;;5048229;28;20482;-74
2023/10/22 09:17:18;;;;;;;11.88;3.05;;;12.80;99.90;;;;;;5051724;28;20086;-74
2023/10/22 09:19:47;;;;;;;8.27;2.78;;;12.80;99.90;;;;;;5045326;28;20424;-74
2023/10/22 09:22:23;;;;;;;11.30;2.95;;;12.90;99.90;;;;;;5048102;28;20026;-74
2023/10/22 09:24:53;;;;;;;9.75;2.75;;;12.90;99.90;;;;;;5039390;28;20068;-75
2023/10/22 09:27:26;;;;;;;10.02;2.47;;;13.00;99.90;;;;;;5051718;28;20047;-74
2023/10/22 09:29:53;;;;;;;6.20;2.22;;;13.00;99.90;;;;;;5051631;28;20021;-74
2023/10/22 09:32:19;;;;;;;9.50;2.45;;;13.10;99.90;;;;;;5065789;28;20464;-76
2023/10/22 09:34:46;;;;;;;6.95;2.40;;;13.20;99.90;;;;;;5052164;28;20025;-74
2023/10/22 09:37:11;;;;;;;8.75;2.50;;;13.30;99.90;;;;;;5050941;28;20021;-76
2023/10/22 09:39:43;;;;;;;6.72;2.20;;;13.50;99.90;;;;;;5051525;28;20032;-76
2023/10/22 09:42:10;;;;;;;7.82;2.53;;;13.70;99.90;;;;;;5041944;28;20026;-76
2023/10/22 09:44:37;;;;;;;6.88;2.17;;;13.90;99.90;;;;;;5036732;28;20020;-76
2023/10/22 09:47:07;;;;;;;5.75;1.90;;;14.10;99.90;;;;;;5043195;28;20037;-76
2023/10/22 09:49:35;;;;;;;7.63;2.20;;;14.30;99.90;;;;;;5049649;28;20475;-77
2023/10/22 09:52:03;;;;;;;6.70;2.15;;;14.40;99.90;;;;;;5050904;28;20398;-76
2023/10/22 09:54:34;;;;;;;5.13;1.80;;;14.60;99.90;;;;;;5051130;28;20021;-76
2023/10/22 09:57:06;;;;;;;6.82;2.03;;;14.70;99.90;;;;;;5046652;28;20523;-75
2023/10/22 09:59:32;;;;;;;3.67;1.83;;;14.70;99.90;;;;;;5048544;28;20033;-76
2023/10/22 10:01:59;;;;;;;5.57;1.90;;;14.80;99.90;;;;;;5050016;28;20032;-76
2023/10/22 10:04:26;;;;;;;6.03;2.05;;;14.70;99.90;;;;;;5050379;28;20044;-76
2023/10/22 10:06:56;;;;;;;5.82;2.08;;;14.60;99.90;;;;;;5050478;28;20386;-76
2023/10/22 10:09:23;;;;;;;6.30;2.00;;;14.50;99.90;;;;;;5050336;28;20113;-75
2023/10/22 10:11:50;;;;;;;12.73;2.42;;;14.50;99.90;;;;;;5051001;28;20036;-76
2023/10/22 10:14:36;;;;;;;6.97;2.08;;;14.50;99.90;;;;;;5050188;28;20148;-76
2023/10/22 10:17:03;;;;;;;11.77;2.20;;;14.50;99.90;;;;;;5044753;28;20079;-76
2023/10/22 10:19:29;;;;;;;8.80;2.42;;;14.60;99.90;;;;;;5047458;28;20029;-76
2023/10/22 10:21:55;;;;;;;6.80;2.15;;;14.80;99.90;;;;;;5046685;28;20021;-76
2023/10/22 10:24:23;;;;;;;5.60;1.90;;;14.90;99.90;;;;;;5047296;28;20040;-76
2023/10/22 10:27:11;;;;;;;5.68;1.88;;;15.00;99.90;;;;;;5048499;28;20040;-76
2023/10/22 10:29:37;;;;;;;6.43;1.60;;;15.10;99.90;;;;;;5036018;28;20037;-76
2023/10/22 10:32:15;;;;;;;5.72;1.50;;;15.20;99.90;;;;;;5049671;28;20020;-75
2023/10/22 10:34:43;;;;;;;4.80;1.40;;;15.30;99.90;;;;;;5050089;28;20025;-76
2023/10/22 10:37:19;;;;;;;6.78;1.75;;;15.40;99.90;;;;;;5050089;28;20098;-76
2023/10/22 10:39:52;;;;;;;5.82;1.55;;;15.30;99.90;;;;;;5038843;28;20066;-76
2023/10/22 10:42:29;;;;;;;5.43;1.60;;;15.30;99.90;;;;;;5050224;28;20025;-75
2023/10/22 10:44:55;;;;;;;4.35;1.60;;;15.20;99.90;;;;;;5042848;28;20021;-75
2023/10/22 10:47:21;;;;;;;5.45;1.38;;;15.10;99.90;;;;;;5050230;28;20389;-75
2023/10/22 10:50:06;;;;;;;7.25;1.33;;;15.10;99.90;;;;;;5049743;28;20159;-75
2023/10/22 10:52:38;;;;;;;4.10;1.40;;;15.10;99.90;;;;;;5047922;28;20045;-76
2023/10/22 10:55:15;;;;;;;6.32;1.40;;;15.10;99.90;;;;;;5050478;28;20021;-75
2023/10/22 10:57:49;;;;;;;3.97;1.80;;;15.20;99.90;;;;;;5050099;28;20028;-75
2023/10/22 11:00:33;;;;;;;6.38;1.90;;;15.10;99.90;;;;;;5049239;28;20053;-75
2023/10/22 11:03:02;;;;;;;6.28;1.33;;;15.10;99.90;;;;;;5041156;28;20033;-75
2023/10/22 11:05:42;;;;;;;4.80;1.50;;;15.20;99.90;;;;;;5042599;28;20035;-75
2023/10/22 11:08:18;;;;;;;5.85;1.40;;;15.30;99.90;;;;;;5049005;28;20329;-75
2023/10/22 11:10:45;;;;;;;4.05;1.02;;;15.30;99.90;;;;;;5050340;28;20420;-75
2023/10/22 11:13:11;;;;;;;3.28;1.15;;;15.30;99.90;;;;;;5056727;28;20033;-75
2023/10/22 11:15:37;;;;;;;2.65;1.10;;;15.40;99.90;;;;;;5051240;28;20086;-75
2023/10/22 11:18:05;;;;;;;8.73;1.50;;;15.50;99.90;;;;;;5051045;28;20051;-74
2023/10/22 11:20:31;;;;;;;3.47;1.00;;;15.70;99.90;;;;;;5049733;28;20120;-74
2023/10/22 11:22:57;;;;;;;4.75;1.30;;;15.80;99.90;;;;;;5041717;28;20108;-74
2023/10/22 11:25:24;;;;;;;4.22;1.05;;;15.90;99.90;;;;;;5047026;28;20041;-75
2023/10/22 11:27:50;;;;;;;2.40;0.80;;;15.90;99.90;;;;;;5039586;28;20025;-75
2023/10/22 11:30:36;;;;;;;5.25;1.30;;;16.00;99.90;;;;;;5048373;28;20032;-76
2023/10/22 11:33:03;;;;;;;5.75;1.20;;;16.00;99.90;;;;;;5049270;28;20056;-73
2023/10/22 11:35:32;;;;;;;4.22;1.10;;;16.00;99.90;;;;;;5047788;28;20024;-73
2023/10/22 11:37:58;;;;;;;5.07;1.10;;;16.00;99.90;;;;;;5049297;28;20036;-73
2023/10/22 11:40:24;;;;;;;4.65;1.17;;;15.90;99.90;;;;;;5042746;28;20021;-73
2023/10/22 11:42:50;;;;;;;4.82;1.10;;;15.80;99.90;;;;;;5051390;28;20029;-72
2023/10/22 11:45:16;;;;;;;5.05;1.20;;;15.70;99.90;;;;;;5048765;28;20039;-72
2023/10/22 11:47:41;;;;;;;8.70;1.10;;;15.80;99.90;;;;;;5048935;28;20499;-72
2023/10/22 11:50:09;;;;;;;2.65;0.82;;;15.90;99.90;;;;;;5044152;28;20058;-72
2023/10/22 11:52:34;;;;;;;4.15;1.10;;;16.10;99.90;;;;;;5048910;28;20124;-72
2023/10/22 11:55:07;;;;;;;2.58;1.08;;;16.20;99.90;;;;;;5048472;28;20112;-73
2023/10/22 11:57:37;;;;;;;5.60;1.02;;;16.20;99.90;;;;;;5036023;28;20028;-72
2023/10/22 12:00:06;;;;;;;3.08;0.90;;;16.10;99.90;;;;;;5049317;28;20025;-73
2023/10/22 12:02:32;;;;;;;2.97;1.00;;;16.00;99.90;;;;;;5040859;28;20413;-72
2023/10/22 12:04:58;;;;;;;4.60;0.93;;;16.00;99.90;;;;;;5048236;28;20041;-72
2023/10/22 12:07:23;;;;;;;4.75;0.90;;;15.90;99.90;;;;;;5048553;28;20029;-75
2023/10/22 12:09:49;;;;;;;4.22;1.08;;;15.90;99.90;;;;;;5049148;28;20033;-75
2023/10/22 12:12:15;;;;;;;3.25;1.00;;;15.90;99.90;;;;;;5050520;28;20040;-75
2023/10/22 12:14:42;;;;;;;3.08;1.15;;;16.00;99.90;;;;;;5052891;28;20029;-74
2023/10/22 12:17:08;;;;;;;4.45;1.00;;;16.00;99.90;;;;;;5044714;28;20108;-74
2023/10/22 12:19:33;;;;;;;4.68;0.82;;;16.00;99.90;;;;;;5053120;28;20401;-75
2023/10/22 12:21:59;;;;;;;5.88;1.00;;;16.00;99.90;;;;;;5051913;28;20025;-75
2023/10/22 12:24:25;;;;;;;5.57;1.00;;;15.90;99.90;;;;;;5052841;28;20028;-74
2023/10/22 12:26:50;;;;;;;1.90;0.82;;;15.90;99.90;;;;;;5064630;28;20029;-75
2023/10/22 12:29:16;;;;;;;2.95;0.90;;;15.90;99.90;;;;;;5044701;28;20102;-75
2023/10/22 12:31:42;;;;;;;6.18;0.80;;;15.90;99.90;;;;;;5048008;28;20036;-75
2023/10/22 12:34:08;;;;;;;5.22;0.90;;;15.80;99.90;;;;;;5045335;28;20043;-75
2023/10/22 12:36:34;;;;;;;1.77;0.80;;;15.70;99.90;;;;;;5043973;28;20030;-75
2023/10/22 12:39:00;;;;;;;5.40;0.93;;;15.70;99.90;;;;;;5050659;28;20071;-75
2023/10/22 12:41:26;;;;;;;4.50;1.13;;;15.70;99.90;;;;;;5048139;28;20517;-75